Airfield :
LOGIN :

Register | Disclaimer

   EN    FR    IT 

 










Legend :    VFR   Marginal VFR   IFR   Intensive IFR   Very Intensive IFR
Visi :
Ceiling :
>= 8 km
>= 3000ft
5 to 8 km
1000 to 3000 ft
1500m to 5 km
500 to 1000 ft
800 to 1500m
200 to 500 ft
< 800m
< 200 ft
Symbols :   Thunderstorms  Fog  Heavy snow  Heavy precipitations  Wind > 20 kt
SIGMETs :     Misc.  Thunderstorms  Icing  Turbulence  Mountain Waves  Volcanic Ashes







- Airport Elevation : 885 ft
- IATA code : BAS
- Download approach charts


LFSB - Bale-Mulhouse

CURRENT METAR :
  • 221030Z 01005KT 310V080 9999 FEW028 BKN240 17/10 Q1020 NOSIG

EXPIRED METARs :
  • 221000Z VRB02KT 9999 SCT023 BKN240 16/10 Q1020 NOSIG
  • 220930Z VRB02KT 9999 SCT016 BKN230 15/11 Q1020 NOSIG
  • 220900Z VRB01KT 9999 SCT016 BKN230 14/11 Q1020 NOSIG
  • 220830Z VRB02KT 9999 BKN006 12/11 Q1020 BECMG SCT015
  • 220800Z 28003KT 250V310 9999 BKN006 12/11 Q1020 BECMG SCT015
  • 220730Z 30003KT 270V340 9999 BKN006 11/11 Q1020 BECMG SCT015

TAF AMD TAF LFSB
Valid from the 22 at 08:00 until the 23 at 06:00 UTC


220819Z 2208/2306 35004KT 9999 BKN006
BECMG 2208/2210 FEW045
PROB40
TEMPO 2300/2305 4000 MIFG
Met : +33 3 89 90 31 11
No reported NOTAMs for that airfield.



MET'MAP, your aeronautical weather chart ! - Copyright ORBIFLY December 2007 - Disclaimer

ORBIFLY MET'MAP TEAM :

Programming & Development : Alexandra Zaïnal
Concept & Development : Baudouin d'Aumeries
Co-Development & Prog : Marc-Olivier Méhu
Technical & hardware support : Manuel Goepfert

Contact : metmap@orbifly.com




SOURCES & CREDITS :

   NOAA